Latest Weather Observations for Port Macquarie Airport

IDN60801

Issued at 5:03 pm EDT Tuesday 26 March 2019 (issued every 10 minutes, with the page automatically refreshed every 10 minutes)

About weather observations | Map of weather stations | Latest weather observations for NSW | Other Formats
Station Details ID: 060139 Name: PORT MACQUARIE AIRPORT AWS Lat: -31.43 Lon: 152.87 Height: 4.2 m
Data from the previous 72 hours. | See also: Recent months at Port Macquarie Airport
Date/Time
EDT
Temp
°C
App
Temp
°C
Dew
Point
°C
Rel
Hum
%
Delta-T
°C
Wind Press
QNH
hPa
Press
MSL
hPa
Rain since
9am
mm
Dir  Spd
km/h
Gust
km/h
Spd
kts
Gust
kts
26/05:00pm 24.8 25.3 19.2 71 3.6 SSE 15 24 8 13 1014.3 1014.3 0.0
26/04:30pm 25.0 24.8 19.4 71 3.6 SSE 19 24 10 13 1014.2 1014.2 0.0
26/04:00pm 25.6 25.8 20.2 72 3.5 SSE 19 24 10 13 1013.8 1013.8 0.0
26/03:30pm 26.3 27.4 20.4 70 3.9 SE 15 20 8 11 1013.8 1013.8 0.0
26/03:00pm 26.4 27.0 20.3 69 4.0 SE 17 24 9 13 1013.7 1013.7 0.0
26/02:30pm 25.4 25.6 19.3 69 3.9 S 17 22 9 12 1013.9 1013.9 0.0
26/02:00pm 25.4 25.5 20.0 72 3.5 SSE 19 26 10 14 1014.0 1014.0 0.0
26/01:30pm 25.5 25.8 19.6 70 3.8 SSE 17 20 9 11 1014.0 1014.0 0.0
26/01:00pm 25.7 25.7 19.8 70 3.8 S 19 24 10 13 1014.3 1014.3 0.0
26/12:30pm 25.2 24.6 19.8 72 3.5 S 22 28 12 15 1014.6 1014.6 0.0
26/12:00pm 25.7 26.2 20.9 75 3.2 SSE 19 26 10 14 1014.5 1014.5 0.0
26/11:30am 25.3 25.6 20.3 74 3.3 SSE 19 26 10 14 1014.7 1014.7 0.0
26/11:00am 25.3 25.6 20.8 76 3.0 SSE 20 26 11 14 1014.6 1014.6 0.0
26/10:30am 24.8 25.2 20.9 79 2.6 S 20 28 11 15 1014.7 1014.7 0.0
26/10:00am 24.4 24.0 20.9 81 2.3 S 24 35 13 19 1014.7 1014.7 0.0
26/09:30am 24.5 26.3 21.8 85 1.8 S 15 20 8 11 1014.5 1014.5 0.0
26/09:00am 23.0 25.7 20.7 87 1.5 SW 7 9 4 5 1014.2 1014.2 0.0
26/08:30am 22.8 25.5 20.3 86 1.6 SSW 6 7 3 4 1013.8 1013.8 0.0
26/08:00am 22.8 24.6 19.6 82 2.0 NW 9 13 5 7 1013.6 1013.6 0.0
26/07:30am 22.8 24.8 20.0 84 1.8 W 9 13 5 7 1013.1 1013.1 0.0
26/07:00am 22.8 24.4 20.0 84 1.8 N 11 13 6 7 1012.9 1012.9 0.0
26/06:30am 22.7 24.2 19.7 83 1.9 NW 11 13 6 7 1012.5 1012.5 0.0
26/06:00am 23.1 25.1 19.9 82 2.1 NW 9 11 5 6 1012.2 1012.2 0.0
26/05:30am 23.3 24.8 19.7 80 2.3 W 11 15 6 8 1012.1 1012.1 0.0
26/05:00am 22.5 24.5 20.0 86 1.6 NW 9 11 5 6 1011.9 1011.9 0.0
26/04:30am 23.2 25.9 20.2 83 1.9 W 6 9 3 5 1011.9 1011.9 0.0
26/04:00am 23.7 25.3 20.0 80 2.4 W 11 17 6 9 1012.1 1012.1 0.0
26/03:30am 23.1 27.1 20.6 86 1.6 CALM 0 0 0 0 1012.0 1012.0 0.0
26/03:00am 23.6 26.7 21.1 86 1.6 WNW 6 7 3 4 1012.2 1012.2 0.0
26/02:30am 23.5 26.2 21.4 88 1.4 WNW 9 15 5 8 1012.6 1012.6 0.0
26/02:00am 23.3 26.9 22.1 93 0.8 WNW 6 11 3 6 1012.6 1012.6 0.0
26/01:30am 23.8 29.0 22.8 94 0.7 CALM 0 0 0 0 1012.6 1012.6 0.0
26/01:12am 23.8 27.8 22.8 94 0.7 WSW 6 7 3 4 1012.7 1012.7 0.0
26/01:00am 24.0 27.6 23.0 94 0.7 WSW 9 13 5 7 1012.8 1012.8 0.0
26/12:30am 23.7 27.6 22.9 95 0.5 SW 7 9 4 5 1012.6 1012.6 0.0
26/12:00am 23.7 28.9 22.9 95 0.5 CALM 0 0 0 0 1012.5 1012.5 0.0
 
Date/Time
EDT
Temp
°C
App
Temp
°C
Dew
Point
°C
Rel
Hum
%
Delta-T
°C
Wind Press
QNH
hPa
Press
MSL
hPa
Rain since
9am
mm
Dir  Spd
km/h
Gust
km/h
Spd
kts
Gust
kts
25/11:30pm 23.8 27.9 23.0 95 0.5 WNW 6 7 3 4 1012.9 1012.9 0.0
25/11:07pm 23.6 27.5 22.9 96 0.5 WSW 7 9 4 5 1012.8 1012.8 0.0
25/11:00pm 23.6 27.6 22.8 95 0.5 NW 6 9 3 5 1012.7 1012.7 0.0
25/10:30pm 23.9 28.1 23.2 96 0.5 NNE 6 9 3 5 1013.0 1013.0 0.0
25/10:00pm 23.5 28.6 22.7 95 0.5 CALM 0 0 0 0 1013.3 1013.3 0.0
25/09:30pm 23.9 29.1 22.9 94 0.7 CALM 0 0 0 0 1013.5 1013.5 0.0
25/09:00pm 23.8 28.1 22.6 93 0.8 W 4 9 2 5 1012.9 1012.9 0.0
25/08:30pm 24.3 29.6 23.1 93 0.8 CALM 0 0 0 0 1012.8 1012.8 0.0
25/08:00pm 24.3 28.4 22.9 92 0.9 NW 6 9 3 5 1012.8 1012.8 0.0
25/07:30pm 24.6 28.5 23.0 91 1.1 NNW 7 11 4 6 1012.3 1012.3 0.0
25/07:00pm 25.2 30.1 23.1 88 1.4 SSE 2 7 1 4 1012.8 1012.8 0.0
25/06:30pm 25.5 30.8 23.0 86 1.7 CALM 0 0 0 0 1012.3 1012.3 0.0
25/06:00pm 25.6 30.3 22.7 84 2.0 S 2 7 1 4 1012.1 1012.1 0.0
25/05:30pm 25.8 29.1 22.5 82 2.2 S 9 13 5 7 1011.9 1011.9 0.0
25/05:00pm 25.8 28.7 22.5 82 2.2 S 11 15 6 8 1011.6 1011.6 0.0
25/04:30pm 26.3 28.5 22.6 80 2.5 S 15 20 8 11 1011.4 1011.4 0.0
25/04:00pm 26.7 28.4 22.3 77 3.0 S 17 22 9 12 1011.0 1011.0 0.0
25/03:30pm 26.9 27.7 22.5 77 3.0 S 22 28 12 15 1011.0 1011.0 0.0
25/03:00pm 27.2 28.4 22.2 74 3.4 S 19 26 10 14 1010.7 1010.7 0.0
25/02:30pm 27.7 29.0 22.6 74 3.5 S 20 30 11 16 1010.6 1010.6 0.0
25/02:00pm 28.2 29.1 23.3 75 3.4 S 24 32 13 17 1010.6 1010.6 0.0
25/01:30pm 28.7 30.0 23.4 73 3.6 S 22 30 12 16 1010.7 1010.7 0.0
25/01:00pm 30.7 31.5 23.1 64 5.2 SSW 24 32 13 17 1010.4 1010.4 0.0
25/12:30pm 32.9 33.5 18.7 43 9.3 N 13 17 7 9 1010.4 1010.4 0.0
25/12:00pm 32.7 34.2 20.6 49 8.1 N 13 19 7 10 1010.4 1010.4 0.0
25/11:30am 31.8 33.8 21.6 54 6.9 N 13 19 7 10 1010.6 1010.6 0.0
25/11:00am 31.2 33.6 22.2 58 6.1 N 13 17 7 9 1011.0 1011.0 0.0
25/10:30am 29.0 31.8 23.0 70 4.1 NNE 13 19 7 10 1011.2 1011.2 0.0
25/10:00am 27.6 31.0 23.4 78 2.9 N 11 13 6 7 1011.5 1011.5 0.0
25/09:30am 26.2 30.2 23.1 83 2.1 N 7 11 4 6 1011.6 1011.6 0.0
25/09:00am 24.0 27.6 22.1 89 1.3 N 6 9 3 5 1011.5 1011.5 9.6
25/08:30am 23.0 27.9 22.3 96 0.5 CALM 0 0 0 0 1011.4 1011.4 9.6
25/08:00am 22.5 26.8 22.0 97 0.3 NW 2 7 1 4 1010.9 1010.9 9.6
25/07:30am 22.4 26.0 22.1 98 0.2 N 6 7 3 4 1010.4 1010.4 9.6
25/07:00am 22.1 25.3 21.6 97 0.3 N 7 13 4 7 1010.2 1010.2 9.6
25/06:30am 22.0 25.1 21.5 97 0.3 NNW 7 9 4 5 1009.9 1009.9 9.6
25/06:00am 22.1 25.3 21.6 97 0.3 NNW 7 9 4 5 1010.1 1010.1 9.6
25/05:30am 22.2 26.5 21.9 98 0.2 NW 2 6 1 3 1009.9 1009.9 9.6
25/05:00am 22.4 25.5 22.1 98 0.2 N 9 11 5 6 1009.9 1009.9 9.6
25/04:30am 22.3 25.7 22.0 98 0.2 WNW 7 9 4 5 1010.2 1010.2 9.6
25/04:00am 22.4 26.0 22.1 98 0.2 SW 6 9 3 5 1009.9 1009.9 9.6
25/03:30am 22.5 25.1 22.0 97 0.3 NW 11 15 6 8 1010.7 1010.7 9.6
25/03:00am 22.3 26.9 21.8 97 0.3 CALM 0 0 0 0 1010.8 1010.8 9.6
25/02:30am 22.1 24.6 21.8 98 0.2 WNW 11 13 6 7 1011.3 1011.3 9.6
25/02:00am 21.9 24.6 21.4 97 0.3 SE 9 11 5 6 1010.7 1010.7 9.6
25/01:30am 22.1 25.5 21.6 97 0.3 N 6 11 3 6 1012.2 1012.2 9.6
25/01:00am 21.6 25.8 20.9 96 0.5 CALM 0 0 0 0 1011.8 1011.8 9.4
25/12:30am 22.0 26.3 21.2 95 0.5 CALM 0 0 0 0 1012.1 1012.1 9.4
25/12:00am 22.2 26.5 21.2 94 0.7 CALM 0 0 0 0 1012.1 1012.1 9.4
 
Date/Time
EDT
Temp
°C
App
Temp
°C
Dew
Point
°C
Rel
Hum
%
Delta-T
°C
Wind Press
QNH
hPa
Press
MSL
hPa
Rain since
9am
mm
Dir  Spd
km/h
Gust
km/h
Spd
kts
Gust
kts
24/11:30pm 22.5 25.5 21.3 93 0.8 WNW 7 11 4 6 1012.0 1012.0 9.4
24/11:00pm 22.8 24.5 21.6 93 0.8 SSW 15 22 8 12 1011.9 1011.9 9.4
24/10:30pm 23.1 24.9 21.9 93 0.8 SE 15 19 8 10 1011.7 1011.7 9.4
24/10:11pm 23.3 27.2 21.9 92 0.9 S 4 9 2 5 1012.5 1012.5 8.8
24/10:00pm 23.6 27.2 22.0 91 1.1 WNW 6 15 3 8 1012.7 1012.7 8.0
24/09:54pm 23.9 27.1 22.3 91 1.1 WNW 9 15 5 8 1012.9 1012.9 7.6
24/09:30pm 24.7 26.3 22.2 86 1.7 WSW 17 26 9 14 1012.4 1012.4 5.4
24/09:00pm 23.8 25.2 21.9 89 1.3 W 17 28 9 15 1011.7 1011.7 5.4
24/08:30pm 23.3 26.3 21.9 92 0.9 NW 9 11 5 6 1010.0 1010.0 5.4
24/08:00pm 23.6 26.4 21.5 88 1.4 NNW 9 13 5 7 1009.8 1009.8 5.4
24/07:30pm 24.5 26.3 21.2 82 2.2 NW 13 22 7 12 1009.5 1009.5 5.4
24/07:26pm 24.3 25.3 20.2 78 2.7 NNW 15 22 8 12 1009.4 1009.4 5.4
24/07:04pm 24.5 28.2 22.6 89 1.3 S 7 17 4 9 1009.9 1009.9 3.0
24/07:00pm 24.7 28.0 22.6 88 1.4 SW 9 17 5 9 1010.2 1010.2 2.2
24/06:30pm 25.7 29.9 24.1 91 1.1 NW 9 13 5 7 1009.6 1009.6 0.4
24/06:00pm 26.2 31.3 24.1 88 1.4 S 4 7 2 4 1009.1 1009.1 0.4
24/05:30pm 26.8 30.1 23.9 84 2.0 NE 13 19 7 10 1009.1 1009.1 0.4
24/05:00pm 26.9 31.2 23.6 82 2.3 ESE 7 15 4 8 1009.6 1009.6 0.2
24/04:30pm 28.1 30.9 23.0 74 3.5 NE 13 15 7 8 1009.3 1009.3 0.0
24/04:00pm 28.7 30.7 23.6 74 3.5 ENE 19 22 10 12 1009.0 1009.0 0.0
24/03:30pm 29.7 30.8 22.4 65 5.0 ENE 20 28 11 15 1009.3 1009.3 0.0
24/03:00pm 30.5 31.9 22.9 64 5.2 ENE 20 28 11 15 1009.5 1009.5 0.0
24/02:30pm 31.7 33.4 23.0 60 6.0 E 19 22 10 12 1009.6 1009.6 0.0
24/02:00pm 32.3 34.2 23.5 59 6.1 ENE 19 24 10 13 1009.8 1009.8 0.0
24/01:30pm 31.8 33.8 23.6 62 5.7 E 19 20 10 11 1010.2 1010.2 0.0
24/01:00pm 33.5 35.2 21.0 48 8.4 N 13 20 7 11 1010.6 1010.6 0.0
24/12:30pm 32.8 33.4 20.3 47 8.3 N 17 22 9 12 1011.0 1011.0 0.0
24/12:00pm 32.2 32.7 21.1 52 7.5 N 20 28 11 15 1011.4 1011.4 0.0
24/11:30am 31.1 31.5 21.0 55 6.8 N 20 26 11 14 1011.8 1011.8 0.0
24/11:00am 29.7 30.4 21.6 61 5.4 NNE 20 28 11 15 1012.4 1012.4 0.0
24/10:30am 28.6 30.9 22.1 68 4.4 N 13 19 7 10 1012.5 1012.5 0.0
24/10:00am 26.9 29.2 21.4 72 3.7 N 11 15 6 8 1012.6 1012.6 0.0
24/09:30am 25.5 28.0 21.8 80 2.5 N 11 15 6 8 1012.5 1012.5 0.0
24/09:00am 23.9 26.5 21.2 85 1.8 N 9 13 5 7 1012.6 1012.6 1.2
24/08:30am 22.8 25.1 20.7 88 1.4 N 9 11 5 6 1012.4 1012.4 1.2
24/08:00am 21.3 24.1 20.5 95 0.5 N 6 9 3 5 1012.3 1012.3 1.2
24/07:30am 20.6 24.4 20.1 97 0.3 CALM 0 0 0 0 1012.3 1012.3 1.2
24/07:00am 20.1 23.5 19.4 96 0.4 CALM 0 0 0 0 1012.5 1012.5 1.2
24/06:30am 20.8 23.9 20.3 97 0.3 N 4 9 2 5 1012.4 1012.4 1.2
24/06:00am 20.9 23.5 20.4 97 0.3 NNW 7 11 4 6 1012.5 1012.5 1.2
24/05:30am 20.9 23.5 20.4 97 0.3 NW 7 11 4 6 1012.4 1012.4 1.2
24/05:00am 21.0 23.2 20.3 96 0.5 NNW 9 11 5 6 1012.1 1012.1 1.2
24/04:30am 21.0 23.2 20.3 96 0.4 NW 9 15 5 8 1012.7 1012.7 1.2
24/04:00am 21.0 23.5 20.3 96 0.4 WNW 7 11 4 6 1012.9 1012.9 1.2
24/03:30am 21.2 23.9 20.2 94 0.6 NW 6 11 3 6 1013.3 1013.3 1.2
24/03:00am 21.0 23.0 20.0 94 0.6 W 9 13 5 7 1014.1 1014.1 1.0
24/02:30am 20.9 22.9 19.9 94 0.6 S 9 11 5 6 1013.9 1013.9 0.8
24/02:00am 21.3 23.3 19.9 92 0.9 WNW 9 13 5 7 1012.8 1012.8 0.8
24/01:30am 21.6 23.3 20.2 92 0.9 SW 11 15 6 8 1012.7 1012.7 0.8
24/01:00am 22.4 23.3 20.9 91 1.0 SSE 17 24 9 13 1013.2 1013.2 0.6
24/12:30am 22.4 23.6 20.7 90 1.1 SSW 15 20 8 11 1013.9 1013.9 0.0
24/12:00am 22.8 25.7 20.7 88 1.4 NW 6 7 3 4 1012.6 1012.6 0.0
 
Date/Time
EDT
Temp
°C
App
Temp
°C
Dew
Point
°C
Rel
Hum
%
Delta-T
°C
Wind Press
QNH
hPa
Press
MSL
hPa
Rain since
9am
mm
Dir  Spd
km/h
Gust
km/h
Spd
kts
Gust
kts
23/11:30pm 23.3 25.8 21.0 87 1.5 NNE 9 11 5 6 1012.4 1012.4 0.0
23/11:00pm 23.3 26.1 20.8 86 1.6 N 7 9 4 5 1012.4 1012.4 0.0
23/10:30pm 23.2 26.0 20.9 87 1.5 NNE 7 11 4 6 1012.4 1012.4 0.0
23/10:00pm 23.2 26.1 21.1 88 1.4 N 7 11 4 6 1012.4 1012.4 0.0
23/09:30pm 23.1 25.5 20.8 87 1.5 NNE 9 11 5 6 1012.1 1012.1 0.0
23/09:00pm 23.2 26.0 20.9 87 1.5 N 7 11 4 6 1012.0 1012.0 0.0
23/08:30pm 21.9 25.0 19.6 87 1.5 N 2 6 1 3 1012.1 1012.1 0.0
23/08:00pm 22.9 26.7 20.1 84 1.8 CALM 0 0 0 0 1011.9 1011.9 0.0
23/07:30pm 24.7 27.8 21.0 80 2.4 NE 6 9 3 5 1011.7 1011.7 0.0
23/07:00pm 25.2 27.7 21.1 78 2.7 NE 9 13 5 7 1011.4 1011.4 0.0
23/06:30pm 26.0 28.6 21.9 78 2.7 NE 11 15 6 8 1011.3 1011.3 0.0
23/06:00pm 26.4 28.3 21.4 74 3.3 NE 13 17 7 9 1011.1 1011.1 0.0
23/05:30pm 27.0 28.6 21.5 72 3.7 ENE 15 17 8 9 1011.2 1011.2 0.0

Other formats

Comma delimited format used in spreadsheet applications
http://www.bom.gov.au/fwo/IDN60801/IDN60801.94786.axf

JavaScript Object Notation format (JSON) in row-major order
http://www.bom.gov.au/fwo/IDN60801/IDN60801.94786.json

Data quality

Most of these data are generated automatically and are frequently updated. Quality checks on data are not normally performed. It is possible for incorrect values to appear. Refer to information at About Latest Weather Observations and please check the disclaimer before using these data.